• Back
  •  
  • Position of Reservoir Gates
S.No.
No. of opened gates
Position of opening (In m)
Reporting Date
Reporting Time
Discharge in Cumecs
Discharge in Cusecs
Actual date and time of Gate opening
1
2
3
4
5
6
7
8
1 9 07/08/2012 8:26:58 PM 2975.53
2 7 08/08/2012 1:07:34 PM 2314.3
3 3 09/08/2012 11:15:36 AM 436.14
4 0 09/08/2012 3:22:04 PM 0
5 5 10/08/2012 10:29:33 AM 728.69
6 7 10/08/2012 1:46:25 PM 1682.3
7 9 11/08/2012 7:20:35 AM 4150.04
8 9 11/08/2012 5:10:43 PM 2531.1
9 9 12/08/2012 8:58:44 AM 2975
10 9 12/08/2012 8:58:44 AM 2976.4
11 5 12/08/2012 11:14:59 AM 720.5
12 0 13/08/2012 6:30:58 AM 0
13 9 18/08/2012 12:08:17 AM 1925.35
14 0 18/08/2012 10:01:02 AM 0
15 11 20/08/2012 9:00:22 AM 1645.3
16 5 21/08/2012 10:01:57 AM 497.7
17 0 23/08/2012 8:25:08 AM 0
18 0 24/08/2012 6:44:26 AM 0
19 7 25/08/2012 6:47:41 AM 700.6
20 7 25/08/2012 6:47:41 AM 700.6
21 0 27/08/2012 7:14:17 AM 0
22 7 27/08/2012 11:31:11 AM 700.59
23 11 27/08/2012 7:47:04 PM 3230.82
24 7 28/08/2012 7:27:09 AM 700.59
25 0 28/08/2012 10:11:11 AM 0
26 0 29/08/2012 7:39:08 AM 0
27 0 18/09/2012 8:47:23 AM 0
28 0 19/09/2012 9:36:13 AM 0
29 0 20/09/2012 9:45:16 AM 0
30 0 21/09/2012 8:32:27 AM 0
31 0 22/09/2012 7:06:22 AM 0
32 5 22/09/2012 8:04:44 PM 258.35
33 0 23/09/2012 6:32:53 AM 0
34 5 13/09/2012 5:54:34 AM 258.35
35 9 30/08/2012 4:55:00 PM 900.85
36 0 31/08/2012 6:11:39 AM 0
37 3 01/09/2012 10:05:16 AM 151.75
38 3 02/09/2012 6:52:49 AM 151.75
39 0 02/09/2012 1:34:20 PM 0
40 3 03/09/2012 6:13:19 AM 151.75
41 6 03/09/2012 12:12:25 PM 310.03
42 0 04/09/2012 12:28:22 PM 0
43 0 04/09/2012 12:32:29 PM 0
44 0 04/09/2012 12:36:15 PM 0
45 13 05/09/2012 8:09:15 AM 9057.64
46 5 14/09/2012 9:14:39 AM 258.35
47 0 15/09/2012 9:44:26 AM 0
48 0 16/09/2012 7:27:16 AM 0
49 5 17/09/2012 5:29:39 AM 258.35
50 5 17/09/2012 6:50:22 AM 258.35
51 0 25/09/2012 7:19:10 AM 0
52 0 26/09/2012 6:56:50 AM 0
53 7 08/09/2012 7:02:57 AM 700.59
54 7 08/09/2012 7:29:47 PM 350.19
55 5 09/09/2012 7:32:53 AM 508.5
56 7 10/09/2012 6:37:12 AM 1400.79
57 13 10/09/2012 10:47:08 AM 3242.5
58 0 11/09/2012 7:05:41 AM 0
59 0 28/09/2012 8:39:09 AM 0
60 0 29/09/2012 6:30:26 AM 0
61 0 30/09/2012 6:36:33 AM 0
62 0 01/10/2012 8:05:32 AM 0
63 0 03/10/2012 10:33:50 AM 0
64 0 04/10/2012 7:13:20 AM 0
65 0 05/10/2012 7:57:29 AM 0
66 0 05/10/2012 8:04:00 AM 0
67 9 14/07/2013 4:36:47 PM 2740.53
68 13 14/07/2013 8:39:47 PM 5985.3
69 9 15/07/2013 6:33:47 AM 2740.53
70 5 15/07/2013 8:21:47 AM 445.91
71 9 15/07/2013 1:21:47 PM 1600.17
72 9 15/07/2013 2:32:13 PM 2740.53
73 5 16/07/2013 2:48:47 AM 1103.8
74 0 16/07/2013 5:51:47 AM 0
75 7 16/07/2013 4:11:13 PM 1545.31
76 3 16/07/2013 7:41:13 PM 402.89
77 3 17/07/2013 6:23:13 AM 402.89
78 9 17/07/2013 12:06:47 PM 2740.63
79 3 17/07/2013 3:48:47 PM 402.89
80 0 17/07/2013 6:02:13 PM 0
81 3 17/07/2013 11:11:13 PM 402.89
82 9 18/07/2013 3:15:47 AM 1986.83
83 11 18/07/2013 5:06:47 AM 4222.74
84 13 18/07/2013 6:26:13 AM 6932.23
85 13 18/07/2013 11:54:48 AM 6319.6
86 9 19/07/2013 12:49:00 AM 2405.65
87 9 20/07/2013 2:58:18 AM 1986.83
88 11 20/07/2013 6:32:13 AM 3786.29
89 9 20/07/2013 5:04:18 PM 1986.83
90 5 20/07/2013 9:31:18 PM 888.98
91 5 21/07/2013 3:22:18 AM 888.98
92 3 21/07/2013 8:10:18 AM 402.89
93 0 21/07/2013 10:46:18 AM 0
94 3 22/07/2013 10:05:13 AM 402.89
95 11 23/07/2013 12:29:18 PM 3863.86
96 9 23/07/2013 5:02:50 PM 1986.83
97 0 23/07/2013 7:56:50 PM 0
98 0 23/07/2013 8:08:50 PM 0
99 9 24/07/2013 10:32:50 AM 2784.62
100 5 24/07/2013 3:05:58 PM 905.41
101 9 25/07/2013 2:14:58 AM 2021.24
102 9 26/07/2013 4:32:39 PM 2021.24
103 11 26/07/2013 6:08:39 PM 3929.59
104 9 26/07/2013 6:32:39 PM 2021.24
105 9 27/07/2013 3:35:39 AM 2784.62
106 5 27/07/2013 8:56:39 AM 905.41
107 3 27/07/2013 11:32:39 AM 275.7
108 0 27/07/2013 12:32:39 PM 0
109 7 27/07/2013 6:44:39 PM 1872.62
110 9 27/07/2013 8:47:39 PM 2784.62
111 5 28/07/2013 3:50:39 AM 888.98
112 3 28/07/2013 9:23:39 AM 404.02
113 7 28/07/2013 1:05:39 PM 1267.57
114 3 28/07/2013 4:05:39 PM 404.02
115 0 29/07/2013 7:50:39 AM 0
116 7 29/07/2013 7:55:37 PM 978.14
117 3 30/07/2013 12:31:37 AM 411.05
118 7 30/07/2013 11:35:30 AM 978.14
119 7 30/07/2013 12:56:30 PM 978.14
120 7 30/07/2013 2:29:30 PM 1294.14
121 11 31/07/2013 8:50:24 AM 3929.59
122 13 31/07/2013 11:59:24 AM 6220.56
123 13 01/08/2013 9:06:42 AM 11566.72
124 13 01/08/2013 9:06:42 AM 11566.72
125 13 01/08/2013 9:06:42 AM 11566.72
126 13 01/08/2013 9:06:42 AM 8777.48
127 13 01/08/2013 9:06:42 AM 8777.48
128 13 01/08/2013 10:19:49 PM 6605.29
129 9 02/08/2013 7:37:49 AM 2838.4
130 3 02/08/2013 11:16:49 AM 419.2
131 7 02/08/2013 8:49:49 PM 2207.65
132 3 03/08/2013 5:28:49 AM 419.2
133 5 03/08/2013 5:30:46 PM 1362.08
134 3 03/08/2013 8:00:46 PM 419.2
135 0 03/08/2013 10:13:57 PM 0
136 3 04/08/2013 12:50:24 PM 419.2
137 5 04/08/2013 2:53:24 PM 698.67
138 3 04/08/2013 10:23:24 PM 283.54
139 0 05/08/2013 8:02:24 AM 0
140 5 05/08/2013 4:24:46 PM 698.67
141 3 06/08/2013 2:21:46 AM 419.2
142 11 06/08/2013 9:15:46 AM 1537.1
143 3 07/08/2013 10:12:46 AM 419.2
144 3 07/08/2013 2:15:46 PM 283.77
145 0 10/08/2013 11:33:46 AM 0
146 0 11/08/2013 9:34:01 AM 0
147 5 12/08/2013 1:53:29 PM 712.46
148 3 13/08/2013 9:26:29 AM 428.46
149 7 13/08/2013 1:08:29 PM 997.45
150 0 14/08/2013 9:22:58 AM 0
151 0 16/08/2013 10:49:26 AM 0
152 0 17/08/2013 7:58:26 AM 0
153 0 20/08/2013 7:48:34 AM 0
154 11 20/08/2013 8:39:34 AM 1603.57
155 0 20/08/2013 2:23:40 PM 0
156 13 20/08/2013 2:29:40 PM 4719.77
157 13 21/08/2013 10:52:10 AM 4719.77
158 13 22/08/2013 8:16:11 AM 6844.17
159 13 22/08/2013 6:31:12 PM 8902.17
160 13 23/08/2013 8:52:12 AM 17324
161 13 23/08/2013 12:25:12 PM 14186
162 13 23/08/2013 8:19:12 PM 7091
163 13 23/08/2013 11:04:12 PM 4299
164 9 24/08/2013 6:16:12 AM 1312
165 0 24/08/2013 4:04:12 PM 0
166 0 25/08/2013 8:42:56 AM 0
167 7 26/08/2013 8:59:37 AM 1386
168 7 27/08/2013 7:29:37 AM 1386
169 3 28/08/2013 9:20:12 AM 437
170 3 29/08/2013 6:59:12 AM 437
171 0 29/08/2013 2:23:16 PM 0
172 0 30/08/2013 8:53:16 AM 0
173 0 31/08/2013 8:16:45 AM 0
174 0 01/09/2013 6:22:45 AM 0
175 0 02/09/2013 8:01:45 AM 0
176 0 03/09/2013 6:31:14 AM 0
177 0 04/09/2013 8:01:17 AM 0
178 0 05/09/2013 6:16:18 AM 0
179 0 08/09/2013 5:49:18 AM 0
180 0 09/09/2013 6:01:18 AM 0
181 0 10/09/2013 9:03:32 AM 0
182 0 12/09/2013 8:09:17 AM 0
183 0 13/09/2013 9:03:17 AM 0
184 0 14/09/2013 6:12:17 AM 0
185 0 15/09/2013 6:24:17 AM 0
186 0 16/09/2013 7:10:09 AM 0
187 0 17/09/2013 6:58:09 AM 0
188 0 19/09/2013 7:43:09 AM 0
189 0 20/09/2013 7:25:17 AM 0
190 0 21/09/2013 6:58:17 AM 0
191 0 22/09/2013 6:19:17 AM 0
192 3 22/09/2013 3:13:17 PM 455
193 0 23/09/2013 7:01:17 AM 0
194 0 24/09/2013 8:07:18 AM 0
195 0 25/09/2013 6:55:18 AM 0
196 0 25/09/2013 6:55:18 AM 0
197 0 26/09/2013 6:55:18 AM 0
198 0 27/09/2013 6:51:24 AM 0
199 0 28/09/2013 7:42:24 AM 0
200 0 29/09/2013 10:33:24 AM 0
201 0 30/09/2013 7:09:24 AM 0
202 0 01/10/2013 7:12:24 AM 0
203 5 04/10/2013 2:37:27 AM 759
204 0 04/10/2013 7:16:27 AM 0
205 0 07/10/2013 6:20:48 AM 0
206 0 08/10/2013 6:56:48 AM 0
207 0 09/10/2013 8:59:48 AM 0
208 0 10/10/2013 8:02:48 AM 0
209 0 11/10/2013 9:46:48 AM 0
210 0 12/10/2013 6:44:00 AM 0
211 3 12/10/2013 7:59:00 PM 305
212 0 13/10/2013 7:17:00 AM 0
213 0 14/10/2013 6:10:40 AM 0
214 0 15/10/2013 7:52:40 AM 0
215 0 16/10/2013 9:13:40 AM 0
216 0 19/10/2013 6:43:27 AM 0
217 0 21/10/2013 1:33:55 PM 0
218 0 22/10/2013 6:54:55 AM 0
219 0 29/10/2013 9:51:57 AM 0
220 3 07/08/2015 2:17:44 PM 572
221 3 08/08/2015 6:12:58 AM 289
222 5 09/08/2015 12:49:44 AM 953
223 5 09/08/2015 12:36:58 PM 481
224 0 10/08/2015 7:08:58 AM 0
225 0 10/08/2015 7:25:44 AM 0
226 9 12/08/2015 6:14:25 AM 4151
227 9 12/08/2015 11:18:25 AM 1312
228 3 12/08/2015 1:58:25 PM 294
229 3 12/08/2015 4:14:25 PM 294
230 5 13/08/2015 11:46:23 AM 729
231 5 13/08/2015 12:42:23 PM 729
232 7 13/08/2015 5:34:23 PM 1682
233 5 14/08/2015 7:38:23 AM 1201
234 11 14/08/2015 1:33:57 PM 2644
235 5 15/08/2015 6:13:57 AM 489
236 3 18/08/2015 7:15:58 AM 294
237 0 19/08/2015 8:35:58 AM 0
238 3 0.92 04/10/2021 8:00:00 AM 104 3672.76 4.10.218am
239 0 0 04/10/2021 8:00:00 AM 0 0 4.10.21 12pm
240 13 09/07/2016 10:19:33 AM 5704
241 13 3.41 09/07/2016 10:19:33 AM 5704 201436.76
242 7 10/07/2016 9:06:14 AM 2961
243 3 10/07/2016 9:06:14 AM 268
244 7 10/07/2016 9:18:07 AM 2961
245 3 10/07/2016 9:18:07 AM 268
246 7 10/07/2016 9:31:18 AM 2961
247 3 10/07/2016 9:31:18 AM 268
248 13 2.41 11/07/2016 6:00:00 AM 4566 161248.29
249 13 11/07/2016 9:32:05 AM 6221
250 11 1.21 11/07/2016 8:00:00 PM 2033 71795.39
251 13 12/07/2016 7:53:40 AM 6440
252 13 12/07/2016 8:32:56 AM 8115
253 13 12/07/2016 12:02:59 PM 14272
254 13 3.96 12/07/2016 7:30:00 PM 9108 321649.02
255 13 3.96 12/07/2016 7:30:00 PM 9108 321649.02
256 13 3.96 12/07/2016 7:30:00 PM 9108 321649.02
257 13 3.96 13/07/2016 8:00:00 AM 9108 321649.02
258 11 13/07/2016 11:57:15 AM 2889
259 3 1.2 13/07/2016 12:10:00 PM 527 18611
260 1 1.2 14/07/2016 3:30:00 AM 176 6215.44
261 5 1.2 22/08/2020 8:00:00 AM 1144 40400.36 05 Nos Gates opened @1.2M Each wef 22-08-2020 8.00AM
262 5 0.6 22/08/2020 11:00:00 AM 478.4 16894.7
263 0 14/07/2016 9:08:59 AM 0
264 0 0 14/07/2016 9:00:00 AM 0 0
265 9 3.66 28/08/2020 8:00:00 AM 4903 173149.44 9 Gates opened at 8:30 am today
266 13 2.6 28/08/2020 8:00:00 PM 8764 309500.66
267 13 2.6 29/08/2020 12:00:00 AM 8764 309500.66 Actual Date of Gate Opening 28.08.2020 & Time 8.00 PM
268 7 26/07/2016 11:24:21 PM 643
269 7 0.6 27/07/2016 11:00:00 AM 643 22707.54
270 3 0.6 28/07/2016 8:01:00 AM 275.6 9732.81
271 5 28/07/2016 11:50:32 AM 459.5
272 3 28/07/2016 12:15:48 PM 275.7
273 5 28/07/2016 4:43:48 PM 459
274 0 0 28/07/2016 6:01:00 PM 0 0
275 7 1.22 01/08/2016 10:31:00 PM 1267 44744.1
276 13 0.84 29/08/2020 11:30:01 AM 11316 399624.54
277 13 0.84 29/08/2020 11:30:00 AM 17316 611514.54 Revised entry
278 13 7.38 29/08/2020 4:00:00 PM 15898 561437.87
279 13 7.28 30/08/2020 12:00:00 AM 12859 454115.58 Gates opened on dated 29.08.2020 at 8.00PM
280 9 4.28 30/08/2020 12:00:00 AM 1701 60070.81
281 7 01/08/2016 1:22:25 PM 1572
282 7 01/08/2016 1:22:25 PM 1572
283 13 1.5 01/08/2016 2:30:00 PM 2976 105097.44
284 13 01/08/2016 7:11:14 PM 4644
285 13 01/08/2016 8:39:14 PM 2975
286 13 2.4 01/08/2016 4:30:00 PM 4644 164002.86
287 7 02/08/2016 6:43:14 AM 1268
288 7 1.2 02/08/2016 8:00:00 AM 1267 44744.1
289 3 03/08/2016 7:11:51 AM 276
290 3 0.6 03/08/2016 4:00:00 AM 275.6 9732.81 03 Nos Gates are Opened At 4.00 AM Dated 03/08/2016
291 3 0.6 04/08/2016 12:01:00 PM 275.6 9732.81 gate open 3/8/2016 4 AM
292 13 06/08/2016 7:40:34 AM 3025
293 3 0.6 05/08/2016 12:01:00 AM 275.6 9732.81 gate open from 3/8/2016 4.00 PM
294 0 0 30/08/2020 10:00:00 AM 0 0
295 7 1.5 06/08/2016 5:30:00 PM 1629 57528.13
296 7 07/08/2016 7:33:42 AM 1629
297 7 07/08/2016 7:33:42 AM 1629
298 7 07/08/2016 7:33:42 AM 1629
299 13 07/08/2016 9:20:35 AM 4157
300 7 07/08/2016 10:17:10 AM 1629
301 7 07/08/2016 10:27:48 PM 1664
302 3 08/08/2016 7:21:39 AM 555
303 3 1.2 08/08/2016 7:00:00 AM 554.5 19582.17
304 0 0 09/08/2016 7:00:00 PM 0 0
305 3 0.9 09/08/2016 12:01:00 AM 419 14796.98 Gate open-8/8/2016 7:30 PM
306 3 08/08/2016 8:13:50 PM 419
307 0 09/08/2016 6:58:07 PM 0
308 3 0.9 19/09/2020 4:00:00 PM 438.6 15489.16
309 3 09/08/2016 9:44:46 AM 284
310 3 0.91 22/09/2020 8:00:00 PM 455 16068.32
311 3 0.9 23/09/2020 12:00:00 AM 455 16068.32
312 3 15/08/2016 9:29:41 AM 289
313 3 15/08/2016 9:59:18 AM 289
314 3 15/08/2016 10:01:41 AM 288
315 3 15/08/2016 10:39:18 AM 289
316 0 16/08/2016 11:11:18 AM 0
317 3 15/08/2016 9:53:41 AM 289
318 3 15/08/2016 9:53:41 AM 289
319 3 0.91 24/09/2020 12:00:00 AM 455 16068.32
320 3 0.6 15/08/2016 12:00:00 AM 286 10100.09 Gate open-14/8/2016 11PM
321 3 0.6 16/08/2016 12:00:00 AM 286 10100.09 gate open 14/8/2016 11 PM
322 5 31/08/2016 4:40:22 AM 758
323 3 31/08/2016 8:36:22 AM 455
324 5 02/09/2016 7:38:40 AM 759
325 1 03/09/2016 7:01:56 AM 151
326 5 1.5 15/09/2021 8:00:00 AM 1248 44073.12 15/09/2021
327 5 1.82 15/09/2021 8:00:00 AM 1248 44073.12 15.9.21 8am
328 1 1.52 15/09/2021 12:00:00 PM 1847 65226.8 15.9.21 12 am
329 3 31/08/2016 11:25:15 AM 305
330 1 31/08/2016 5:37:15 PM 101
331 3 01/09/2016 9:38:40 PM 305
332 5 0.9 31/08/2016 4:00:00 AM 758 26768.77
333 3 0.6 31/08/2016 10:30:00 AM 304.9 10767.54 Gate open-31/8/2016 Time 10:30 AM
334 1 0.6 01/09/2016 12:00:00 AM 101 3566.81 Gate open- 31/8/2016 5:30PM
335 7 1.5 15/09/2021 12:00:00 PM 1847 65226.8 15.9.21 pm
336 3 1.52 15/09/2021 8:00:00 AM 748 26415.62
337 5 1.2 16/09/2021 4:00:00 PM 1005 35491.57
338 3 0.66 17/09/2021 8:00:00 AM 749 26450.93 17/09/2021
339 0 0 17/09/2021 12:00:00 PM 0 0 17/09/2021
340 3 0.6 02/09/2016 4:00:01 PM 455.2 16075.39 Gate opened at 2:30 pm on 02/09/2016
341 1 0.6 03/09/2016 1:30:00 PM 101.6 3588 Gate open- 3/9/2016 01.30PM
342 1 0.91 25/09/2021 12:00:00 PM 151 5332.56
343 5 1.52 26/09/2021 8:00:00 AM 1248 44073.12 26/09/2021
344 3 1.52 26/09/2021 12:00:00 PM 749 26450.93
345 1 04/09/2016 7:59:44 AM 101
346 0 05/09/2016 7:16:43 AM 0
347 3 21/09/2016 7:24:38 AM 305
348 1 20/09/2016 8:48:38 PM 101
349 3 21/09/2016 6:56:38 AM 305
350 1 22/09/2016 12:40:50 AM 101.67
351 1 23/09/2016 2:48:57 AM 101.67
352 1 23/09/2016 3:32:57 AM 51.65
353 1 23/09/2016 6:00:57 AM 101
354 1 23/09/2016 8:04:57 AM 51.65
355 0 0 23/09/2016 1:01:00 PM 0 0
356 0 23/09/2016 8:21:54 PM 0
357 1 0.6 25/09/2016 9:30:00 AM 101 3566.81
358 1 26/09/2016 8:34:17 AM 101
359 6 0.6 26/09/2016 12:00:00 AM 101 3566.81 Gate open 25/9/16 9:30 AM
360 1 27/09/2016 10:10:19 AM 51.65
361 0 28/09/2016 7:02:19 AM 0
362 5 1.2 14/08/2019 6:00:00 PM 954.2 33697.57
363 5 1.2 15/08/2019 12:40:00 AM 954.2 33697.57
364 11 2.4 15/08/2019 7:00:00 AM 4120 145497.8 11 nos. of gate opening 2.40m av.since 11:50pm on dated14/8/2019,discharge passing 145510 cusecs
365 0 0 15/08/2019 6:00:00 PM 0 0 all gates are closed
366 5 1 20/08/2019 12:01:00 AM 749.4 26466.83 gate opening since 19/8/2019 at 6:0pm
367 5 1 19/08/2019 6:00:00 PM 739.4 26111.91
368 3 0.9 21/08/2019 7:21:00 AM 443.6 15668.21 gates opening since 20/8/2019at7:0am
369 3 0.3 22/08/2019 12:01:00 AM 443.6 15665.73 gate opening since 21/8/2019 at 8pm
370 3 0.9 20/08/2019 7:00:00 AM 443.6 15668.21
371 3 0.6 22/08/2019 7:00:00 AM 298.5 10541.53
372 2 0.6 21/08/2019 6:00:00 PM 298.5 10541.53
373 1 0.6 22/08/2019 4:00:00 PM 99.51 3514.2
374 1 0.6 23/08/2019 12:01:00 AM 99.51 3514.2
375 3 0.9 23/08/2019 7:06:00 AM 443.6 15665.73
376 5 0.9 23/08/2019 7:00:00 AM 739.4 26111.91
377 5 0.9 24/08/2019 12:02:00 AM 739.4 26111.91
378 3 0.9 24/08/2019 5:00:00 AM 443.6 15665.73
379 13 4.26 24/08/2019 12:00:00 PM 8382 296010.33
380 13 4.26 25/08/2019 12:01:00 AM 8383 296045.64
381 5 2.1 25/08/2019 1:30:00 AM 1677 59223.25
382 11 1.2 25/08/2019 4:00:00 PM 3690 130312.35
383 13 2.7 26/08/2019 12:01:00 AM 5520 194938.8
384 9 2.43 26/08/2019 11:00:00 AM 3371 119046.86
385 11 3 26/08/2019 1:30:00 PM 4599 162413.68
386 11 3 27/08/2019 12:05:00 AM 4599 162413.68
387 9 1.82 27/08/2019 8:00:00 AM 2613 92278.1
388 5 1.82 27/08/2019 4:00:00 PM 512.6 18102.47
389 5 1.82 27/08/2019 9:00:00 PM 1452 51277.38
390 5 1.82 28/08/2019 12:01:00 AM 1452 51277.38
391 0 0 28/08/2019 8:00:00 AM 0 0 All gates closed at 10am today
392 0 0 29/08/2019 12:05:00 AM 0 0
393 3 1.21 04/09/2019 8:00:00 AM 603.4 21309.07
394 13 2.13 03/09/2019 8:00:00 AM 4488 158493.72
395 7 2.13 03/09/2019 11:35:00 AM 2416 85321.04
396 3 2.13 03/09/2019 2:30:00 PM 1036 36586.34
397 0 0 04/09/2019 10:00:00 AM 0 0 All gates closed at 10:am. Today
398 5 1.21 05/09/2019 8:00:00 AM 1726 60953.69
399 3 0.9 05/09/2019 12:00:00 PM 302 10665.13
400 3 1 05/09/2019 12:05:00 PM 455 16068.32
401 3 0.6 06/09/2019 9:09:00 AM 305 10771.07
402 9 2.12 06/09/2019 6:30:00 PM 3107 109723.7
403 9 2.12 07/09/2019 3:07:00 AM 3107 109723.7
404 3 0.6 07/09/2019 12:00:00 PM 305 10771.07
405 5 2.1 07/09/2019 1:00:00 PM 1726 60953.69
406 7 2.1 07/09/2019 7:00:00 PM 2417 85356.35
407 3 0.6 08/09/2019 8:00:00 AM 304.5 10753.42
408 7 2.15 08/09/2019 4:00:00 PM 2417 85356.35
409 11 2.25 08/09/2019 8:00:00 PM 3910 138081.65
410 11 2.25 09/09/2019 3:00:00 AM 3910 138081.65
411 9 2.13 09/09/2019 12:10:00 PM 470.4 16612.18
412 7 2.1 09/09/2019 4:00:00 PM 1677 59223.25
413 3 0.9 10/09/2019 8:00:00 AM 448.5 15838.78
414 13 1.5 11/09/2019 6:00:00 AM 3205 113184.57
415 3 2.1 11/09/2019 8:00:00 AM 1035 36551.02
416 13 2.74 11/09/2019 12:00:00 PM 5682 200659.83
417 13 2.1 11/09/2019 4:00:00 AM 4487 158458.4
418 7 2.1 12/09/2019 4:00:00 AM 1726 60953.69
419 5 2.1 12/09/2019 6:30:00 PM 2009 70947.83
420 5 2.1 13/09/2019 2:46:00 AM 2009 70947.83
421 3 0.92 13/09/2019 10:00:00 AM 455 16068.32
422 0 0 13/09/2019 3:30:00 PM 0 0
423 3 1 14/09/2019 4:00:00 PM 455 16068.32
424 3 0.3 15/09/2019 8:00:00 AM 455.1 16071.86
425 3 0.6 16/09/2019 8:00:00 AM 304.9 10767.54
426 3 0.6 16/09/2019 8:00:00 AM 304.9 10767.54
427 3 0.6 17/09/2019 12:01:00 AM 304.9 10767.54
428 7 1.52 17/09/2019 8:10:00 AM 387.6 13688.09
429 3 0.6 17/09/2019 4:00:00 PM 305 10771.43
430 3 1.5 19/09/2019 4:00:00 PM 748.7 26442.11
431 3 0.6 18/09/2019 12:01:00 AM 305 10771.07
432 3 0.6 19/09/2019 12:00:00 PM 305 10771.07
433 9 1.52 18/09/2019 6:00:00 AM 2246 79317.49
434 3 1.5 19/09/2019 8:00:00 AM 748.7 26440.34
435 5 1.5 20/09/2019 12:01:00 AM 1247 44037.81
436 3 1.52 20/09/2019 8:00:00 AM 748.6 26436.81
437 5 1.5 18/09/2019 4:00:00 PM 1248 44073.12
438 3 0.6 20/09/2019 8:00:00 PM 305 10771.07
439 3 0.6 21/09/2019 12:01:00 AM 305 10771.07
440 0 0 21/09/2019 11:00:00 AM 0 0 All Gates are closed.
441 3 0.6 22/09/2019 9:00:00 AM 455 16068.32
442 3 0.6 23/09/2019 10:00:00 AM 455 16068.32
443 5 1 26/09/2019 12:01:00 AM 758 26768.77
444 5 1.5 24/09/2019 8:00:00 AM 1248 44073.12
445 3 0.9 24/09/2019 4:00:00 PM 455 16068.32
446 3 0.6 23/09/2019 1:22:00 AM 455 16068.32
447 3 0.9 25/09/2019 12:09:00 AM 455 16068.32
448 5 0.91 26/09/2019 11:00:00 AM 758.5 26786.43
449 5 1.5 28/09/2019 10:00:00 AM 758.5 26786.43
450 3 0.6 24/09/2019 12:01:00 AM 455 16068.32
451 5 1.52 24/09/2019 12:00:00 PM 1248 44073.12
452 1 1 26/09/2019 5:00:00 PM 151 5332.56
453 1 1 27/09/2019 12:01:00 AM 151 5332.56
454 0 0 27/09/2019 12:05:00 AM 0 0 all gates are closed
455 3 0.9 28/09/2019 4:00:00 PM 455.1 16071.86
456 3 0.91 29/09/2019 1:00:00 AM 455.1 16071.86
457 1 2 29/09/2019 9:00:00 AM 101.6 3588
458 1 0.6 30/09/2019 12:01:00 AM 101.7 3591.54
459 3 1.2 30/09/2019 12:00:00 PM 603.5 21312.6
460 3 0.6 30/09/2019 8:00:00 AM 305 10771.07
461 1 0.3 02/10/2019 9:00:00 AM 151.6 5353.75
462 3 0.66 30/09/2019 8:00:00 PM 305 10771.07
463 1 0.9 02/10/2019 4:00:00 PM 191 6745.16
464 0 0 06/10/2019 9:30:00 AM 0 0 All Gates are closed.
465 1 0.5 07/10/2019 12:01:00 AM 101.7 3591.54
466 1 0.5 05/10/2019 7:00:00 PM 101.6 3588
467 1 0.5 06/10/2019 1:00:00 AM 101.7 3591.54
Powered by © Water Resources Department (MP). All Rights Reserved.